Terminal Aerodrome Forecast
Issued by NWS Albuquerque, NM

Home | Current Version | Previous Version | Text Only | Print | Product List | Glossary On
Versions: 1 2 3 4 5 6 7 8 9 10 11 12
000
FTUS45 KABQ 291736
TAFABQ
TAF
KABQ 291736Z 2918/3018 VRB06KT P6SM FEW070
     FM292100 32008KT P6SM SCT070 SCT120
     FM292300 09015G25KT P6SM VCTS SCT080CB
      TEMPO 2923/3002 VRB25G35KT -TSRA BKN070CB
     FM300200 09010KT P6SM SCT080 BKN110
     FM300900 06006KT P6SM SCT120=

USA.gov is the U.S. government's official web portal to all federal, state and local government web resources and services.